Time;durP1;ratioP1;P1;durP2;ratioP2;P2;SDS_P1;SDS_P2;PMS_P1;PMS_P2;Temp;Humidity;BMP_temperature;BMP_pressure;BME280_temperature;BME280_humidity;BME280_pressure;Samples;Min_cycle;Max_cycle;Signal;HPM_P1;HPM_P2
2023/07/27 00:00:07;;;;;;;;;;;;;;;;;;5090635;28;1086;-68
2023/07/27 00:02:32;;;;;;;;;;;;;;;;;;5094580;28;855;-68
2023/07/27 00:04:58;;;;;;;;;;;;;;;;;;5095118;28;833;-68
2023/07/27 00:07:24;;;;;;;;;;;;;;;;;;5093254;28;875;-68
2023/07/27 00:09:49;;;;;;;;;;;;;;;;;;5094541;28;1898;-68
2023/07/27 00:12:14;;;;;;;;;;;;;;;;;;5095014;28;930;-68
2023/07/27 00:14:40;;;;;;;;;;;;;;;;;;5095557;28;804;-69
2023/07/27 00:17:05;;;;;;;;;;;;;;;;;;5095275;28;817;-68
2023/07/27 00:19:30;;;;;;;;;;;;;;;;;;5095570;28;1177;-68
2023/07/27 00:21:55;;;;;;;;;;;;;;;;;;5093696;28;1077;-68
2023/07/27 00:24:21;;;;;;;;;;;;;;;;;;5095267;28;911;-68
2023/07/27 00:26:46;;;;;;;;;;;;;;;;;;5095132;28;883;-68
2023/07/27 00:29:11;;;;;;;;;;;;;;;;;;5094318;28;840;-68
2023/07/27 00:31:36;;;;;;;;;;;;;;;;;;5095077;28;1909;-68
2023/07/27 00:34:02;;;;;;;;;;;;;;;;;;5088398;28;1281;-68
2023/07/27 00:36:27;;;;;;;;;;;;;;;;;;5091088;28;1460;-68
2023/07/27 00:38:52;;;;;;;;;;;;;;;;;;5094701;28;1003;-68
2023/07/27 00:41:18;;;;;;;;;;;;;;;;;;5092539;28;885;-67
2023/07/27 00:43:43;;;;;;;;;;;;;;;;;;5094237;28;843;-68
2023/07/27 00:46:09;;;;;;;;;;;;;;;;;;5093669;28;963;-67
2023/07/27 00:48:34;;;;;;;;;;;;;;;;;;5094071;28;1069;-67
2023/07/27 00:51:00;;;;;;;;;;;;;;;;;;5093303;28;1898;-67
2023/07/27 00:53:25;;;;;;;;;;;;;;;;;;5092738;28;791;-67
2023/07/27 00:55:51;;;;;;;;;;;;;;;;;;5094005;28;896;-67
2023/07/27 00:58:16;;;;;;;;;;;;;;;;;;5091964;28;1021;-67
2023/07/27 01:00:42;;;;;;;;;;;;;;;;;;5093820;28;920;-68
2023/07/27 01:03:08;;;;;;;;;;;;;;;;;;5093599;28;818;-68
2023/07/27 01:05:34;;;;;;;;;;;;;;;;;;5094105;28;872;-68
2023/07/27 01:07:59;;;;;;;;;;;;;;;;;;5092169;28;820;-68
2023/07/27 01:10:44;;;;;;;;;;;;;;;;;;5093608;28;1968;-69
2023/07/27 01:13:19;;;;;;;;;;;;;;;;;;5092518;28;2215;-68
2023/07/27 01:15:49;;;;;;;;;;;;;;;;;;5093894;28;883;-68
2023/07/27 01:18:25;;;;;;;;;;;;;;;;;;5093105;28;852;-68
2023/07/27 01:20:59;;;;;;;;;;;;;;;;;;5093545;28;1187;-68
2023/07/27 01:23:44;;;;;;;;;;;;;;;;;;5093238;28;1150;-68
2023/07/27 01:26:16;;;;;;;;;;;;;;;;;;5093690;28;908;-68
2023/07/27 01:28:51;;;;;;;;;;;;;;;;;;5092552;28;1239;-68
2023/07/27 01:31:25;;;;;;;;;;;;;;;;;;5092763;28;1975;-69
2023/07/27 01:33:57;;;;;;;;;;;;;;;;;;5092418;28;919;-69
2023/07/27 01:36:24;;;;;;;;;;;;;;;;;;5091721;28;958;-68
2023/07/27 01:38:50;;;;;;;;;;;;;;;;;;5093164;28;1081;-68
2023/07/27 01:41:17;;;;;;;;;;;;;;;;;;5092509;28;848;-69
2023/07/27 01:43:43;;;;;;;;;;;;;;;;;;5092937;28;916;-68
2023/07/27 01:46:09;;;;;;;;;;;;;;;;;;5091412;28;1476;-68
2023/07/27 01:48:37;;;;;;;;;;;;;;;;;;5092828;28;1042;-68
2023/07/27 01:51:03;;;;;;;;;;;;;;;;;;5093126;28;1898;-68
2023/07/27 01:53:29;;;;;;;;;;;;;;;;;;5093418;28;832;-68
2023/07/27 01:55:55;;;;;;;;;;;;;;;;;;5093749;28;935;-68
2023/07/27 01:58:21;;;;;;;;;;;;;;;;;;5091574;28;1339;-69
2023/07/27 02:00:47;;;;;;;;;;;;;;;;;;5093378;28;918;-68
2023/07/27 02:03:12;;;;;;;;;;;;;;;;;;5092887;28;927;-67
2023/07/27 02:05:38;;;;;;;;;;;;;;;;;;5093177;28;971;-68
2023/07/27 02:08:03;;;;;;;;;;;;;;;;;;5092992;28;883;-68
2023/07/27 02:10:29;;;;;;;;;;;;;;;;;;5093397;28;1921;-68
2023/07/27 02:13:04;;;;;;;;;;;;;;;;;;5092897;28;1014;-68
2023/07/27 02:15:36;;;;;;;;;;;;;;;;;;5092121;28;990;-68
2023/07/27 02:18:07;;;;;;;;;;;;;;;;;;5091759;28;1189;-68
2023/07/27 02:20:34;;;;;;;;;;;;;;;;;;5091776;28;1187;-67
2023/07/27 02:23:01;;;;;;;;;;;;;;;;;;5092029;28;896;-68
2023/07/27 02:25:27;;;;;;;;;;;;;;;;;;5091641;28;889;-68
2023/07/27 02:27:52;;;;;;;;;;;;;;;;;;5092584;28;960;-68
2023/07/27 02:30:18;;;;;;;;;;;;;;;;;;5092007;28;1978;-68
2023/07/27 02:32:43;;;;;;;;;;;;;;;;;;5092507;28;848;-68
2023/07/27 02:35:08;;;;;;;;;;;;;;;;;;5091716;28;1042;-68
2023/07/27 02:37:34;;;;;;;;;;;;;;;;;;5092070;28;1201;-68
2023/07/27 02:39:59;;;;;;;;;;;;;;;;;;5091909;28;958;-67
2023/07/27 02:42:24;;;;;;;;;;;;;;;;;;5090082;28;915;-68
2023/07/27 02:44:50;;;;;;;;;;;;;;;;;;5091699;28;809;-67
2023/07/27 02:47:15;;;;;;;;;;;;;;;;;;5091329;28;899;-67
2023/07/27 02:49:40;;;;;;;;;;;;;;;;;;5092387;28;1969;-67
2023/07/27 02:52:05;;;;;;;;;;;;;;;;;;5091358;28;793;-69
2023/07/27 02:54:31;;;;;;;;;;;;;;;;;;5091736;28;875;-67
2023/07/27 02:56:56;;;;;;;;;;;;;;;;;;5091806;28;832;-67
2023/07/27 02:59:21;;;;;;;;;;;;;;;;;;5090899;28;969;-68
2023/07/27 03:01:46;;;;;;;;;;;;;;;;;;5091846;28;995;-68
2023/07/27 03:04:12;;;;;;;;;;;;;;;;;;5089849;28;879;-67
2023/07/27 03:06:39;;;;;;;;;;;;;;;;;;5091216;28;939;-67
2023/07/27 03:09:04;;;;;;;;;;;;;;;;;;5091200;28;888;-68
2023/07/27 03:11:29;;;;;;;;;;;;;;;;;;5091275;28;1972;-67
2023/07/27 03:13:56;;;;;;;;;;;;;;;;;;5091913;28;963;-67
2023/07/27 03:16:21;;;;;;;;;;;;;;;;;;5091432;28;1022;-68
2023/07/27 03:18:46;;;;;;;;;;;;;;;;;;5091562;28;911;-68
2023/07/27 03:21:11;;;;;;;;;;;;;;;;;;5090908;28;1205;-67
2023/07/27 03:23:37;;;;;;;;;;;;;;;;;;5091361;28;829;-68
2023/07/27 03:26:08;;;;;;;;;;;;;;;;;;5091437;28;966;-68
2023/07/27 03:28:34;;;;;;;;;;;;;;;;;;5092011;28;851;-67
2023/07/27 03:30:59;;;;;;;;;;;;;;;;;;5073542;28;1914;-68
2023/07/27 03:33:24;;;;;;;;;;;;;;;;;;5092292;28;903;-67
2023/07/27 03:35:49;;;;;;;;;;;;;;;;;;5094012;28;1010;-68
2023/07/27 03:38:14;;;;;;;;;;;;;;;;;;5095987;28;879;-68
2023/07/27 03:40:40;;;;;;;;;;;;;;;;;;5096074;28;872;-68
2023/07/27 03:43:05;;;;;;;;;;;;;;;;;;5095524;28;867;-68
2023/07/27 03:45:30;;;;;;;;;;;;;;;;;;5095886;28;1192;-67
2023/07/27 03:47:55;;;;;;;;;;;;;;;;;;5077488;28;962;-68
2023/07/27 03:50:21;;;;;;;;;;;;;;;;;;5094721;28;1992;-67
2023/07/27 03:52:46;;;;;;;;;;;;;;;;;;5095339;28;898;-67
2023/07/27 03:55:12;;;;;;;;;;;;;;;;;;5094908;28;878;-67
2023/07/27 03:57:37;;;;;;;;;;;;;;;;;;5094566;28;919;-67
2023/07/27 04:00:02;;;;;;;;;;;;;;;;;;5094790;28;906;-68
2023/07/27 04:02:28;;;;;;;;;;;;;;;;;;5095093;28;835;-67
2023/07/27 04:04:53;;;;;;;;;;;;;;;;;;5095021;28;883;-67
2023/07/27 04:07:19;;;;;;;;;;;;;;;;;;5094852;28;1545;-68
2023/07/27 04:09:44;;;;;;;;;;;;;;;;;;5094611;28;1890;-68
2023/07/27 04:12:10;;;;;;;;;;;;;;;;;;5094188;28;872;-69
2023/07/27 04:14:35;;;;;;;;;;;;;;;;;;5094454;28;935;-68
2023/07/27 04:17:01;;;;;;;;;;;;;;;;;;5095196;28;828;-67
2023/07/27 04:19:26;;;;;;;;;;;;;;;;;;5092775;28;888;-68
2023/07/27 04:21:51;;;;;;;;;;;;;;;;;;5094295;28;1302;-67
2023/07/27 04:24:16;;;;;;;;;;;;;;;;;;5093027;28;828;-68
2023/07/27 04:26:41;;;;;;;;;;;;;;;;;;5094353;28;938;-67
2023/07/27 04:29:07;;;;;;;;;;;;;;;;;;5092872;28;852;-68
2023/07/27 04:31:32;;;;;;;;;;;;;;;;;;5094248;28;1913;-68
2023/07/27 04:33:57;;;;;;;;;;;;;;;;;;5094324;28;822;-67
2023/07/27 04:36:24;;;;;;;;;;;;;;;;;;5092891;28;884;-68
2023/07/27 04:38:49;;;;;;;;;;;;;;;;;;5094209;28;892;-68
2023/07/27 04:41:14;;;;;;;;;;;;;;;;;;5093615;28;875;-68
2023/07/27 04:43:39;;;;;;;;;;;;;;;;;;5094098;28;1145;-67
2023/07/27 04:46:05;;;;;;;;;;;;;;;;;;5093626;28;895;-68
2023/07/27 04:48:31;;;;;;;;;;;;;;;;;;5093315;28;833;-68
2023/07/27 04:50:56;;;;;;;;;;;;;;;;;;5094178;28;1944;-68
2023/07/27 04:53:21;;;;;;;;;;;;;;;;;;5093590;28;911;-68
2023/07/27 04:55:46;;;;;;;;;;;;;;;;;;5092906;28;1175;-67
2023/07/27 04:58:12;;;;;;;;;;;;;;;;;;5089289;28;1227;-67
2023/07/27 05:00:37;;;;;;;;;;;;;;;;;;5074607;28;1171;-68
2023/07/27 05:03:02;;;;;;;;;;;;;;;;;;5070419;28;1136;-67
2023/07/27 05:05:28;;;;;;;;;;;;;;;;;;5069383;28;1136;-68
2023/07/27 05:07:53;;;;;;;;;;;;;;;;;;5052463;28;1418;-68
2023/07/27 05:10:18;;;;;;;;;;;;;;;;;;5053221;28;1967;-68
2023/07/27 05:12:44;;;;;;;;;;;;;;;;;;5053255;28;889;-67
2023/07/27 05:15:09;;;;;;;;;;;;;;;;;;5053308;28;916;-68
2023/07/27 05:17:34;;;;;;;;;;;;;;;;;;5053090;28;996;-67
2023/07/27 05:20:00;;;;;;;;;;;;;;;;;;5054156;28;852;-67
2023/07/27 05:22:25;;;;;;;;;;;;;;;;;;5053811;28;1298;-67
2023/07/27 05:24:50;;;;;;;;;;;;;;;;;;5053930;28;837;-68
2023/07/27 05:27:16;;;;;;;;;;;;;;;;;;5052812;28;832;-68
2023/07/27 05:29:42;;;;;;;;;;;;;;;;;;5053065;28;1957;-68
2023/07/27 05:32:07;;;;;;;;;;;;;;;;;;5053525;28;817;-67
2023/07/27 05:34:34;;;;;;;;;;;;;;;;;;5053382;28;998;-67
2023/07/27 05:37:00;;;;;;;;;;;;;;;;;;5053374;28;868;-68
2023/07/27 05:39:25;;;;;;;;;;;;;;;;;;5052809;28;932;-68
2023/07/27 05:41:50;;;;;;;;;;;;;;;;;;5052299;28;834;-68
2023/07/27 05:44:15;;;;;;;;;;;;;;;;;;5052546;28;891;-67
2023/07/27 05:46:41;;;;;;;;;;;;;;;;;;5052438;28;816;-67
2023/07/27 05:49:06;;;;;;;;;;;;;;;;;;5052375;28;993;-67
2023/07/27 05:51:31;;;;;;;;;;;;;;;;;;5052726;28;1914;-67
2023/07/27 05:53:57;;;;;;;;;;;;;;;;;;5052480;28;832;-68
2023/07/27 05:56:22;;;;;;;;;;;;;;;;;;5051671;28;829;-68
2023/07/27 05:58:47;;;;;;;;;;;;;;;;;;5052227;28;913;-67
2023/07/27 06:01:14;;;;;;;;;;;;;;;;;;5051794;28;919;-67
2023/07/27 06:03:39;;;;;;;;;;;;;;;;;;5052028;28;868;-67
2023/07/27 06:06:05;;;;;;;;;;;;;;;;;;5084248;28;932;-68
2023/07/27 06:08:31;;;;;;;;;;;;;;;;;;5052644;28;963;-67
2023/07/27 06:11:04;;;;;;;;;;;;;;;;;;5084623;28;1955;-68
2023/07/27 06:13:29;;;;;;;;;;;;;;;;;;5052087;28;851;-67
2023/07/27 06:15:55;;;;;;;;;;;;;;;;;;5052839;28;872;-67
2023/07/27 06:18:20;;;;;;;;;;;;;;;;;;5051781;28;955;-68
2023/07/27 06:20:45;;;;;;;;;;;;;;;;;;5084345;28;1041;-66
2023/07/27 06:23:10;;;;;;;;;;;;;;;;;;5083888;28;1184;-67
2023/07/27 06:25:35;;;;;;;;;;;;;;;;;;5051780;28;980;-67
2023/07/27 06:28:01;;;;;;;;;;;;;;;;;;5051779;28;881;-67
2023/07/27 06:30:26;;;;;;;;;;;;;;;;;;5051310;28;2028;-68
2023/07/27 06:32:51;;;;;;;;;;;;;;;;;;5051045;28;888;-67
2023/07/27 06:35:17;;;;;;;;;;;;;;;;;;5051652;28;916;-67
2023/07/27 06:37:42;;;;;;;;;;;;;;;;;;5051936;28;1023;-68
2023/07/27 06:40:08;;;;;;;;;;;;;;;;;;5051347;28;825;-68
2023/07/27 06:42:33;;;;;;;;;;;;;;;;;;5050740;28;893;-68
2023/07/27 06:44:58;;;;;;;;;;;;;;;;;;5051237;28;1076;-67
2023/07/27 06:47:24;;;;;;;;;;;;;;;;;;5051249;28;1062;-68
2023/07/27 06:49:49;;;;;;;;;;;;;;;;;;5051692;28;1898;-67
2023/07/27 06:52:15;;;;;;;;;;;;;;;;;;5083521;28;876;-68
2023/07/27 06:54:40;;;;;;;;;;;;;;;;;;5051130;28;912;-68
2023/07/27 06:57:09;;;;;;;;;;;;;;;;;;5051497;28;848;-68
2023/07/27 06:59:35;;;;;;;;;;;;;;;;;;5051542;28;982;-69
2023/07/27 07:02:00;;;;;;;;;;;;;;;;;;5051148;28;935;-69
2023/07/27 07:04:25;;;;;;;;;;;;;;;;;;5051557;28;905;-68
2023/07/27 07:06:51;;;;;;;;;;;;;;;;;;5050815;28;900;-69
2023/07/27 07:09:16;;;;;;;;;;;;;;;;;;5049831;28;1091;-68
2023/07/27 07:11:41;;;;;;;;;;;;;;;;;;5050383;28;1914;-68
2023/07/27 07:14:07;;;;;;;;;;;;;;;;;;5051228;28;927;-68
2023/07/27 07:16:32;;;;;;;;;;;;;;;;;;5049740;28;1101;-69
2023/07/27 07:18:57;;;;;;;;;;;;;;;;;;5051638;28;856;-68
2023/07/27 07:21:23;;;;;;;;;;;;;;;;;;5051541;28;1048;-68
2023/07/27 07:23:48;;;;;;;;;;;;;;;;;;5051081;28;1081;-68
2023/07/27 07:26:14;;;;;;;;;;;;;;;;;;5051818;28;876;-68
2023/07/27 07:28:39;;;;;;;;;;;;;;;;;;5052162;28;948;-68
2023/07/27 07:31:05;;;;;;;;;;;;;;;;;;5051230;28;1942;-68
2023/07/27 07:33:30;;;;;;;;;;;;;;;;;;5051035;28;1387;-69
2023/07/27 07:35:55;;;;;;;;;;;;;;;;;;5052153;28;832;-68
2023/07/27 07:38:21;;;;;;;;;;;;;;;;;;5083364;28;883;-68
2023/07/27 07:40:46;;;;;;;;;;;;;;;;;;5050900;28;876;-68
2023/07/27 07:43:11;;;;;;;;;;;;;;;;;;5049107;28;1190;-68
2023/07/27 07:45:37;;;;;;;;;;;;;;;;;;5051007;28;833;-68
2023/07/27 07:48:03;;;;;;;;;;;;;;;;;;5051119;28;864;-68
2023/07/27 07:50:29;;;;;;;;;;;;;;;;;;5051036;28;1951;-68
2023/07/27 07:52:54;;;;;;;;;;;;;;;;;;5050861;28;854;-68
2023/07/27 07:55:19;;;;;;;;;;;;;;;;;;5049599;28;1377;-69
2023/07/27 07:57:45;;;;;;;;;;;;;;;;;;5051092;28;1217;-68
2023/07/27 08:00:10;;;;;;;;;;;;;;;;;;5049784;28;1215;-68
2023/07/27 08:02:35;;;;;;;;;;;;;;;;;;5051139;28;1592;-68
2023/07/27 08:05:01;;;;;;;;;;;;;;;;;;5050862;28;820;-69
2023/07/27 08:07:26;;;;;;;;;;;;;;;;;;5051196;28;888;-68
2023/07/27 08:09:51;;;;;;;;;;;;;;;;;;5051258;28;1956;-68
2023/07/27 08:12:16;;;;;;;;;;;;;;;;;;5050798;28;959;-68
2023/07/27 08:14:42;;;;;;;;;;;;;;;;;;5051420;28;935;-68
2023/07/27 08:17:08;;;;;;;;;;;;;;;;;;5051149;28;990;-71
2023/07/27 08:19:33;;;;;;;;;;;;;;;;;;5051407;28;798;-68
2023/07/27 08:21:58;;;;;;;;;;;;;;;;;;5050556;28;1041;-68
2023/07/27 08:24:24;;;;;;;;;;;;;;;;;;5086971;28;884;-68
2023/07/27 08:26:50;;;;;;;;;;;;;;;;;;5054342;28;921;-68
2023/07/27 08:29:15;;;;;;;;;;;;;;;;;;5053742;28;912;-68
2023/07/27 08:31:41;;;;;;;;;;;;;;;;;;5053553;28;1967;-69
2023/07/27 08:34:06;;;;;;;;;;;;;;;;;;5053819;28;932;-68
2023/07/27 08:36:32;;;;;;;;;;;;;;;;;;5053913;28;945;-68
2023/07/27 08:38:58;;;;;;;;;;;;;;;;;;5053645;28;875;-68
2023/07/27 08:41:24;;;;;;;;;;;;;;;;;;5053645;28;868;-69
2023/07/27 08:43:51;;;;;;;;;;;;;;;;;;5053761;28;899;-69
2023/07/27 08:46:17;;;;;;;;;;;;;;;;;;5066085;28;1255;-68
2023/07/27 08:48:43;;;;;;;;;;;;;;;;;;5072841;28;1148;-68
2023/07/27 08:51:08;;;;;;;;;;;;;;;;;;5072558;28;1954;-69
2023/07/27 08:53:34;;;;;;;;;;;;;;;;;;5074611;28;883;-68
2023/07/27 08:55:59;;;;;;;;;;;;;;;;;;5074430;28;840;-68
2023/07/27 08:58:24;;;;;;;;;;;;;;;;;;5073963;28;885;-68
2023/07/27 09:00:50;;;;;;;;;;;;;;;;;;5074455;28;970;-68
2023/07/27 09:03:15;;;;;;;;;;;;;;;;;;5073598;28;840;-68
2023/07/27 09:05:41;;;;;;;;;;;;;;;;;;5074403;28;816;-68
2023/07/27 09:08:08;;;;;;;;;;;;;;;;;;5073187;28;836;-69
2023/07/27 09:10:33;;;;;;;;;;;;;;;;;;5074266;28;1956;-68
2023/07/27 09:13:00;;;;;;;;;;;;;;;;;;5055869;28;1503;-68
2023/07/27 09:15:26;;;;;;;;;;;;;;;;;;5074152;28;883;-68
2023/07/27 09:17:52;;;;;;;;;;;;;;;;;;5073975;28;812;-68
2023/07/27 09:20:17;;;;;;;;;;;;;;;;;;5073507;28;1189;-68
2023/07/27 09:22:44;;;;;;;;;;;;;;;;;;5073700;28;1275;-68
2023/07/27 09:25:09;;;;;;;;;;;;;;;;;;5071864;28;804;-68
2023/07/27 09:27:45;;;;;;;;;;;;;;;;;;5074406;28;813;-68
2023/07/27 09:30:11;;;;;;;;;;;;;;;;;;5072875;28;1914;-68
2023/07/27 09:32:36;;;;;;;;;;;;;;;;;;5073440;28;905;-68
2023/07/27 09:35:02;;;;;;;;;;;;;;;;;;5073197;28;1019;-68
2023/07/27 09:37:30;;;;;;;;;;;;;;;;;;5071982;28;923;-68
2023/07/27 09:40:08;;;;;;;;;;;;;;;;;;5072424;28;919;-68
2023/07/27 09:42:33;;;;;;;;;;;;;;;;;;5073539;28;859;-68
2023/07/27 09:44:58;;;;;;;;;;;;;;;;;;5073479;28;868;-68
2023/07/27 09:47:29;;;;;;;;;;;;;;;;;;5073216;28;891;-68
2023/07/27 09:49:57;;;;;;;;;;;;;;;;;;5073805;28;1898;-68
2023/07/27 09:52:23;;;;;;;;;;;;;;;;;;5071140;28;864;-68
2023/07/27 09:54:49;;;;;;;;;;;;;;;;;;5072668;28;793;-68
2023/07/27 09:57:15;;;;;;;;;;;;;;;;;;5071496;28;950;-68
2023/07/27 09:59:41;;;;;;;;;;;;;;;;;;5072642;28;993;-68
2023/07/27 10:02:07;;;;;;;;;;;;;;;;;;5071786;28;633;-69
2023/07/27 10:04:32;;;;;;;;;;;;;;;;;;5071808;28;970;-68
2023/07/27 10:06:57;;;;;;;;;;;;;;;;;;5071834;28;884;-68
2023/07/27 10:09:23;;;;;;;;;;;;;;;;;;5070422;28;837;-69
2023/07/27 10:11:59;;;;;;;;;;;;;;;;;;5071930;28;1963;-69
2023/07/27 10:14:28;;;;;;;;;;;;;;;;;;5072072;28;824;-68
2023/07/27 10:16:58;;;;;;;;;;;;;;;;;;5071953;28;895;-68
2023/07/27 10:19:24;;;;;;;;;;;;;;;;;;5071478;28;1144;-68
2023/07/27 10:21:51;;;;;;;;;;;;;;;;;;5071636;28;1173;-68
2023/07/27 10:24:23;;;;;;;;;;;;;;;;;;5071200;28;904;-69
2023/07/27 10:26:49;;;;;;;;;;;;;;;;;;5071635;28;992;-68
2023/07/27 10:29:21;;;;;;;;;;;;;;;;;;5070510;28;895;-68
2023/07/27 10:31:59;;;;;;;;;;;;;;;;;;5070931;28;1965;-68
2023/07/27 10:34:25;;;;;;;;;;;;;;;;;;5070380;28;851;-69
2023/07/27 10:36:57;;;;;;;;;;;;;;;;;;5071045;28;1203;-68
2023/07/27 10:39:26;;;;;;;;;;;;;;;;;;5071361;28;821;-68
2023/07/27 10:42:04;;;;;;;;;;;;;;;;;;5071249;28;929;-68
2023/07/27 10:44:42;;;;;;;;;;;;;;;;;;5069420;28;943;-69
2023/07/27 10:47:11;;;;;;;;;;;;;;;;;;5071355;28;840;-68
2023/07/27 10:49:47;;;;;;;;;;;;;;;;;;5071592;28;963;-68
2023/07/27 10:52:13;;;;;;;;;;;;;;;;;;5071330;28;1977;-69
2023/07/27 10:54:40;;;;;;;;;;;;;;;;;;5071380;28;804;-68
2023/07/27 10:57:06;;;;;;;;;;;;;;;;;;5071598;28;857;-68
2023/07/27 10:59:33;;;;;;;;;;;;;;;;;;5071408;28;1047;-69
2023/07/27 11:01:59;;;;;;;;;;;;;;;;;;5071519;28;903;-68
2023/07/27 11:04:24;;;;;;;;;;;;;;;;;;5071302;28;1095;-68
2023/07/27 11:06:50;;;;;;;;;;;;;;;;;;5071420;28;986;-68
2023/07/27 11:09:16;;;;;;;;;;;;;;;;;;5070708;28;820;-69
2023/07/27 11:11:42;;;;;;;;;;;;;;;;;;5071230;28;1905;-69
2023/07/27 11:14:07;;;;;;;;;;;;;;;;;;5071211;28;1023;-69
2023/07/27 11:16:37;;;;;;;;;;;;;;;;;;5070999;28;911;-69
2023/07/27 11:19:03;;;;;;;;;;;;;;;;;;5071905;28;861;-68
2023/07/27 11:21:30;;;;;;;;;;;;;;;;;;5071704;28;833;-69
2023/07/27 11:23:57;;;;;;;;;;;;;;;;;;5072035;28;1288;-68
2023/07/27 11:26:24;;;;;;;;;;;;;;;;;;5072509;28;1031;-68
2023/07/27 11:28:49;;;;;;;;;;;;;;;;;;5072011;28;836;-69
2023/07/27 11:31:16;;;;;;;;;;;;;;;;;;5070949;28;1926;-69
2023/07/27 11:33:42;;;;;;;;;;;;;;;;;;5071909;28;883;-69
2023/07/27 11:36:10;;;;;;;;;;;;;;;;;;5070994;28;845;-68
2023/07/27 11:38:36;;;;;;;;;;;;;;;;;;5071471;28;852;-68
2023/07/27 11:41:02;;;;;;;;;;;;;;;;;;5071250;28;903;-69
2023/07/27 11:43:27;;;;;;;;;;;;;;;;;;5070362;28;946;-68
2023/07/27 11:45:56;;;;;;;;;;;;;;;;;;5070822;28;885;-68
2023/07/27 11:48:28;;;;;;;;;;;;;;;;;;5070956;28;931;-68
2023/07/27 11:50:54;;;;;;;;;;;;;;;;;;5071822;28;1971;-68
2023/07/27 11:53:21;;;;;;;;;;;;;;;;;;5070720;28;905;-68
2023/07/27 11:55:48;;;;;;;;;;;;;;;;;;5071260;28;970;-68
2023/07/27 11:58:13;;;;;;;;;;;;;;;;;;5075291;28;982;-68
2023/07/27 12:00:39;;;;;;;;;;;;;;;;;;5074593;28;860;-68
2023/07/27 12:03:04;;;;;;;;;;;;;;;;;;5073549;28;860;-67
2023/07/27 12:05:31;;;;;;;;;;;;;;;;;;5074197;28;911;-67
2023/07/27 12:07:57;;;;;;;;;;;;;;;;;;5075233;28;929;-68
2023/07/27 12:10:23;;;;;;;;;;;;;;;;;;5074075;28;1901;-68
2023/07/27 12:12:58;;;;;;;;;;;;;;;;;;5074449;28;844;-69
2023/07/27 12:15:24;;;;;;;;;;;;;;;;;;5072920;28;1251;-70
2023/07/27 12:17:56;;;;;;;;;;;;;;;;;;5074543;28;915;-69
2023/07/27 12:20:22;;;;;;;;;;;;;;;;;;5074214;28;793;-69
2023/07/27 12:22:47;;;;;;;;;;;;;;;;;;5074598;28;1207;-70
2023/07/27 12:25:12;;;;;;;;;;;;;;;;;;5074208;28;1010;-69
2023/07/27 12:27:38;;;;;;;;;;;;;;;;;;5073768;28;892;-70
2023/07/27 12:30:03;;;;;;;;;;;;;;;;;;5074830;28;1906;-69
2023/07/27 12:32:28;;;;;;;;;;;;;;;;;;5073727;28;778;-70
2023/07/27 12:34:54;;;;;;;;;;;;;;;;;;5074770;28;820;-69
2023/07/27 12:37:19;;;;;;;;;;;;;;;;;;5073683;28;943;-69
2023/07/27 12:39:45;;;;;;;;;;;;;;;;;;5074332;28;931;-68
2023/07/27 12:42:11;;;;;;;;;;;;;;;;;;5074537;28;809;-70
2023/07/27 12:44:36;;;;;;;;;;;;;;;;;;5073500;28;848;-69
2023/07/27 12:47:01;;;;;;;;;;;;;;;;;;5074230;28;966;-69
2023/07/27 12:49:26;;;;;;;;;;;;;;;;;;5074027;28;832;-69
2023/07/27 12:51:52;;;;;;;;;;;;;;;;;;5073658;28;1973;-69
2023/07/27 12:54:17;;;;;;;;;;;;;;;;;;5071774;28;1265;-69
2023/07/27 12:56:42;;;;;;;;;;;;;;;;;;5070880;28;1379;-69
2023/07/27 12:59:08;;;;;;;;;;;;;;;;;;5073366;28;935;-69
2023/07/27 13:01:33;;;;;;;;;;;;;;;;;;5073124;28;855;-69
2023/07/27 13:03:58;;;;;;;;;;;;;;;;;;5055369;28;959;-69
2023/07/27 13:06:24;;;;;;;;;;;;;;;;;;5073053;28;903;-69
2023/07/27 13:08:49;;;;;;;;;;;;;;;;;;5071942;28;1203;-69
2023/07/27 13:11:14;;;;;;;;;;;;;;;;;;5053711;28;2041;-69
2023/07/27 13:13:40;;;;;;;;;;;;;;;;;;5072922;28;884;-69
2023/07/27 13:16:05;;;;;;;;;;;;;;;;;;5074203;28;1106;-69
2023/07/27 13:18:30;;;;;;;;;;;;;;;;;;5072404;28;1113;-69
2023/07/27 13:20:55;;;;;;;;;;;;;;;;;;5074124;28;1070;-69
2023/07/27 13:23:21;;;;;;;;;;;;;;;;;;5072809;28;1304;-69
2023/07/27 13:25:46;;;;;;;;;;;;;;;;;;5073835;28;975;-69
2023/07/27 13:28:11;;;;;;;;;;;;;;;;;;5073254;28;868;-69
2023/07/27 13:30:37;;;;;;;;;;;;;;;;;;5072288;28;1905;-69
2023/07/27 13:33:02;;;;;;;;;;;;;;;;;;5073026;28;915;-69
2023/07/27 13:35:27;;;;;;;;;;;;;;;;;;5072150;28;923;-69
2023/07/27 13:37:53;;;;;;;;;;;;;;;;;;5072314;28;888;-69
2023/07/27 13:40:18;;;;;;;;;;;;;;;;;;5072472;28;836;-69
2023/07/27 13:42:43;;;;;;;;;;;;;;;;;;5073422;28;882;-69
2023/07/27 13:45:09;;;;;;;;;;;;;;;;;;5073031;28;900;-69
2023/07/27 13:47:35;;;;;;;;;;;;;;;;;;5072306;28;900;-69
2023/07/27 13:50:00;;;;;;;;;;;;;;;;;;5072902;28;1906;-69
2023/07/27 13:52:26;;;;;;;;;;;;;;;;;;5072109;28;854;-69
2023/07/27 13:54:51;;;;;;;;;;;;;;;;;;5072643;28;832;-69
2023/07/27 13:57:17;;;;;;;;;;;;;;;;;;5072622;28;924;-68
2023/07/27 13:59:42;;;;;;;;;;;;;;;;;;5071420;28;954;-69
2023/07/27 14:02:07;;;;;;;;;;;;;;;;;;5071865;28;845;-69
2023/07/27 14:04:33;;;;;;;;;;;;;;;;;;5072167;28;825;-69
2023/07/27 14:06:58;;;;;;;;;;;;;;;;;;5072876;28;895;-70
2023/07/27 14:09:25;;;;;;;;;;;;;;;;;;5070713;28;1303;-69
2023/07/27 14:11:50;;;;;;;;;;;;;;;;;;5073085;28;1985;-70
2023/07/27 14:14:15;;;;;;;;;;;;;;;;;;5072418;28;1006;-70
2023/07/27 14:16:40;;;;;;;;;;;;;;;;;;5072295;28;809;-69
2023/07/27 14:19:06;;;;;;;;;;;;;;;;;;5071893;28;1207;-70
2023/07/27 14:21:31;;;;;;;;;;;;;;;;;;5071313;28;853;-69
2023/07/27 14:23:56;;;;;;;;;;;;;;;;;;5072377;28;1069;-70
2023/07/27 14:26:22;;;;;;;;;;;;;;;;;;5072153;28;852;-71
2023/07/27 14:28:47;;;;;;;;;;;;;;;;;;5054308;28;1818;-69
2023/07/27 14:31:13;;;;;;;;;;;;;;;;;;5071509;28;1918;-69
2023/07/27 14:33:38;;;;;;;;;;;;;;;;;;5070194;28;813;-69
2023/07/27 14:36:04;;;;;;;;;;;;;;;;;;5071443;28;848;-69
2023/07/27 14:38:29;;;;;;;;;;;;;;;;;;5071526;28;919;-69
2023/07/27 14:40:54;;;;;;;;;;;;;;;;;;5071862;28;808;-68
2023/07/27 14:43:20;;;;;;;;;;;;;;;;;;5072144;28;938;-68
2023/07/27 14:45:45;;;;;;;;;;;;;;;;;;5071934;28;963;-69
2023/07/27 14:48:10;;;;;;;;;;;;;;;;;;5070919;28;1642;-67
2023/07/27 14:50:36;;;;;;;;;;;;;;;;;;5071447;28;1930;-67
2023/07/27 14:53:01;;;;;;;;;;;;;;;;;;5072418;28;939;-69
2023/07/27 14:55:26;;;;;;;;;;;;;;;;;;5071755;28;973;-68
2023/07/27 14:57:51;;;;;;;;;;;;;;;;;;5072179;28;1077;-67
2023/07/27 15:00:20;;;;;;;;;;;;;;;;;;5071921;28;1166;-67
2023/07/27 15:02:45;;;;;;;;;;;;;;;;;;5071825;28;950;-67
2023/07/27 15:05:10;;;;;;;;;;;;;;;;;;5072048;28;895;-67
2023/07/27 15:07:36;;;;;;;;;;;;;;;;;;5071162;28;833;-68
2023/07/27 15:10:01;;;;;;;;;;;;;;;;;;5071779;28;1960;-68
2023/07/27 15:12:26;;;;;;;;;;;;;;;;;;5071672;28;1062;-68
2023/07/27 15:14:53;;;;;;;;;;;;;;;;;;5071883;28;943;-68
2023/07/27 15:17:18;;;;;;;;;;;;;;;;;;5072292;28;813;-68
2023/07/27 15:19:46;;;;;;;;;;;;;;;;;;5071662;28;1078;-68
2023/07/27 15:22:12;;;;;;;;;;;;;;;;;;5071641;28;1068;-67
2023/07/27 15:24:37;;;;;;;;;;;;;;;;;;5071570;28;959;-68
2023/07/27 15:27:02;;;;;;;;;;;;;;;;;;5072603;28;876;-68
2023/07/27 15:29:28;;;;;;;;;;;;;;;;;;5071828;28;931;-68
2023/07/27 15:31:53;;;;;;;;;;;;;;;;;;5074771;28;1913;-68
2023/07/27 15:34:18;;;;;;;;;;;;;;;;;;5076765;28;919;-68
2023/07/27 15:36:43;;;;;;;;;;;;;;;;;;5075960;28;837;-68
2023/07/27 15:39:08;;;;;;;;;;;;;;;;;;5076968;28;860;-68
2023/07/27 15:41:34;;;;;;;;;;;;;;;;;;5075607;28;845;-68
2023/07/27 15:43:59;;;;;;;;;;;;;;;;;;5075973;28;869;-68
2023/07/27 15:46:24;;;;;;;;;;;;;;;;;;5075742;28;864;-68
2023/07/27 15:48:50;;;;;;;;;;;;;;;;;;5076033;28;801;-68
2023/07/27 15:51:15;;;;;;;;;;;;;;;;;;5074455;28;1943;-68
2023/07/27 15:53:41;;;;;;;;;;;;;;;;;;5075393;28;833;-68
2023/07/27 15:56:07;;;;;;;;;;;;;;;;;;5076111;28;804;-68
2023/07/27 15:58:32;;;;;;;;;;;;;;;;;;5075199;28;1004;-68
2023/07/27 16:00:57;;;;;;;;;;;;;;;;;;5074377;28;920;-67
2023/07/27 16:03:23;;;;;;;;;;;;;;;;;;5075263;28;946;-67
2023/07/27 16:05:48;;;;;;;;;;;;;;;;;;5074732;28;1225;-68
2023/07/27 16:08:14;;;;;;;;;;;;;;;;;;5075520;28;809;-68
2023/07/27 16:10:42;;;;;;;;;;;;;;;;;;5074876;28;1913;-68
2023/07/27 16:13:08;;;;;;;;;;;;;;;;;;5075350;28;864;-67
2023/07/27 16:15:33;;;;;;;;;;;;;;;;;;5074741;28;907;-69
2023/07/27 16:17:58;;;;;;;;;;;;;;;;;;5074457;28;900;-68
2023/07/27 16:20:24;;;;;;;;;;;;;;;;;;5074641;28;836;-69
2023/07/27 16:22:49;;;;;;;;;;;;;;;;;;5074026;28;1000;-69
2023/07/27 16:25:14;;;;;;;;;;;;;;;;;;5074094;28;994;-69
2023/07/27 16:27:40;;;;;;;;;;;;;;;;;;5073358;28;964;-69
2023/07/27 16:30:05;;;;;;;;;;;;;;;;;;5074479;28;1909;-69
2023/07/27 16:32:30;;;;;;;;;;;;;;;;;;5073720;28;990;-69
2023/07/27 16:34:56;;;;;;;;;;;;;;;;;;5074113;28;1041;-69
2023/07/27 16:37:21;;;;;;;;;;;;;;;;;;5074314;28;1128;-69
2023/07/27 16:39:46;;;;;;;;;;;;;;;;;;5073962;28;947;-69
2023/07/27 16:42:11;;;;;;;;;;;;;;;;;;5073932;28;978;-69
2023/07/27 16:44:37;;;;;;;;;;;;;;;;;;5072632;28;954;-69
2023/07/27 16:47:02;;;;;;;;;;;;;;;;;;5074196;28;863;-69
2023/07/27 16:49:28;;;;;;;;;;;;;;;;;;5073337;28;903;-69
2023/07/27 16:51:53;;;;;;;;;;;;;;;;;;5073783;28;1909;-68
2023/07/27 16:54:18;;;;;;;;;;;;;;;;;;5072569;28;966;-68
2023/07/27 16:56:44;;;;;;;;;;;;;;;;;;5073309;28;886;-68
2023/07/27 16:59:09;;;;;;;;;;;;;;;;;;5072684;28;1207;-68
2023/07/27 17:01:34;;;;;;;;;;;;;;;;;;5072984;28;907;-68
2023/07/27 17:03:59;;;;;;;;;;;;;;;;;;5073056;28;818;-68
2023/07/27 17:06:25;;;;;;;;;;;;;;;;;;5074223;28;809;-68